Time;durP1;ratioP1;P1;durP2;ratioP2;P2;SDS_P1;SDS_P2;PMS_P1;PMS_P2;Temp;Humidity;BMP_temperature;BMP_pressure;BME280_temperature;BME280_humidity;BME280_pressure;Samples;Min_cycle;Max_cycle;Signal;HPM_P1;HPM_P2
2022/09/19 00:01:37;;;;;;;1.02;0.20;;;;;;;;;;4990178;28;20425;-68
2022/09/19 00:04:14;;;;;;;1.83;0.28;;;;;;;;;;4989796;28;20034;-68
2022/09/19 00:06:41;;;;;;;7.65;0.55;;;;;;;;;;4989982;28;20615;-70
2022/09/19 00:09:09;;;;;;;0.80;0.30;;;;;;;;;;4989945;28;20035;-70
2022/09/19 00:11:34;;;;;;;2.58;0.35;;;;;;;;;;4990771;28;20047;-70
2022/09/19 00:14:00;;;;;;;0.73;0.20;;;;;;;;;;4990010;28;20061;-69
2022/09/19 00:16:37;;;;;;;3.75;0.20;;;;;;;;;;4984315;28;20047;-69
2022/09/19 00:19:04;;;;;;;1.70;0.20;;;;;;;;;;4986773;28;20042;-68
2022/09/19 00:21:41;;;;;;;1.17;0.43;;;;;;;;;;4983542;28;20034;-69
2022/09/19 00:26:55;;;;;;;1.05;0.40;;;;;;;;;;4976529;28;20049;-69
2022/09/19 00:29:21;;;;;;;0.85;0.30;;;;;;;;;;4967095;28;20340;-70
2022/09/19 00:31:47;;;;;;;1.73;0.60;;;;;;;;;;4985049;28;20681;-71
2022/09/19 00:34:15;;;;;;;2.55;0.43;;;;;;;;;;4985380;28;20051;-69
2022/09/19 00:36:42;;;;;;;1.50;0.40;;;;;;;;;;4989119;28;20139;-68
2022/09/19 00:39:08;;;;;;;2.25;0.75;;;;;;;;;;4985254;28;20126;-70
2022/09/19 00:41:36;;;;;;;1.05;0.30;;;;;;;;;;4983038;28;20707;-70
2022/09/19 00:44:26;;;;;;;2.05;0.30;;;;;;;;;;4985298;28;20034;-74
2022/09/19 00:47:02;;;;;;;0.95;0.30;;;;;;;;;;4983027;28;20168;-74
2022/09/19 00:49:31;;;;;;;1.83;0.50;;;;;;;;;;4983345;28;20502;-71
2022/09/19 00:52:01;;;;;;;4.05;0.50;;;;;;;;;;4980910;28;20050;-74
2022/09/19 00:54:40;;;;;;;2.60;0.40;;;;;;;;;;4972131;28;20043;-69
2022/09/19 00:57:07;;;;;;;1.27;0.38;;;;;;;;;;4976701;28;20038;-69
2022/09/19 00:59:38;;;;;;;3.92;0.98;;;;;;;;;;4987178;28;20046;-69
2022/09/19 01:02:05;;;;;;;1.10;0.45;;;;;;;;;;4993996;28;20035;-66
2022/09/19 01:04:35;;;;;;;0.82;0.45;;;;;;;;;;4987373;28;20026;-67
2022/09/19 01:07:43;;;;;;;2.80;0.50;;;;;;;;;;4990489;28;20061;-67
2022/09/19 01:10:26;;;;;;;3.47;0.30;;;;;;;;;;4989725;28;20051;-67
2022/09/19 01:13:16;;;;;;;4.53;0.70;;;;;;;;;;4987831;28;20073;-67
2022/09/19 01:15:53;;;;;;;2.75;0.32;;;;;;;;;;4986364;28;20050;-67
2022/09/19 01:18:24;;;;;;;2.65;0.43;;;;;;;;;;4985624;28;20050;-67
2022/09/19 01:24:24;;;;;;;4.25;0.40;;;;;;;;;;4989464;28;20042;-67
2022/09/19 01:27:18;;;;;;;5.43;0.60;;;;;;;;;;4986092;28;20046;-67
2022/09/19 01:29:53;;;;;;;4.13;0.40;;;;;;;;;;4986003;28;20038;-67
2022/09/19 01:32:24;;;;;;;0.80;0.20;;;;;;;;;;4985911;28;20039;-67
2022/09/19 01:34:59;;;;;;;3.55;0.38;;;;;;;;;;4988525;28;20466;-67
2022/09/19 01:37:32;;;;;;;5.95;0.52;;;;;;;;;;4985398;28;20367;-68
2022/09/19 01:40:03;;;;;;;3.30;0.60;;;;;;;;;;4986631;28;20497;-67
2022/09/19 01:42:29;;;;;;;5.55;0.70;;;;;;;;;;4986980;28;20124;-68
2022/09/19 01:44:54;;;;;;;3.15;0.70;;;;;;;;;;4985014;28;20078;-67
2022/09/19 01:47:46;;;;;;;6.03;0.63;;;;;;;;;;4984596;28;20156;-67
2022/09/19 01:50:34;;;;;;;3.70;0.88;;;;;;;;;;4985520;28;20489;-68
2022/09/19 01:53:18;;;;;;;3.30;0.40;;;;;;;;;;4989108;28;20037;-67
2022/09/19 01:55:57;;;;;;;4.85;0.63;;;;;;;;;;4989281;28;20073;-67
2022/09/19 01:58:34;;;;;;;6.05;0.80;;;;;;;;;;4989114;28;20133;-67
2022/09/19 02:01:26;;;;;;;6.22;0.70;;;;;;;;;;4985181;28;20129;-67
2022/09/19 02:04:00;;;;;;;2.97;1.02;;;;;;;;;;4986680;28;20078;-67
2022/09/19 02:06:42;;;;;;;3.17;0.50;;;;;;;;;;4988038;28;20046;-67
2022/09/19 02:09:17;;;;;;;3.50;0.50;;;;;;;;;;4988912;28;20056;-67
2022/09/19 02:11:43;;;;;;;2.88;0.40;;;;;;;;;;4986518;28;20077;-67
2022/09/19 02:14:17;;;;;;;3.42;0.80;;;;;;;;;;4986694;28;20090;-67
2022/09/19 02:16:53;;;;;;;5.78;0.85;;;;;;;;;;4984708;28;20491;-67
2022/09/19 02:19:32;;;;;;;7.72;0.77;;;;;;;;;;4980525;28;20411;-66
2022/09/19 02:22:09;;;;;;;7.25;0.98;;;;;;;;;;4984525;28;20777;-69
2022/09/19 02:24:38;;;;;;;5.00;0.93;;;;;;;;;;4982983;28;20161;-67
2022/09/19 02:27:09;;;;;;;4.75;0.60;;;;;;;;;;4986913;28;20130;-67
2022/09/19 02:29:46;;;;;;;5.93;0.80;;;;;;;;;;4983205;28;20096;-67
2022/09/19 02:32:11;;;;;;;5.38;0.70;;;;;;;;;;4984610;28;20034;-67
2022/09/19 02:34:37;;;;;;;4.00;0.90;;;;;;;;;;4988007;28;20030;-67
2022/09/19 02:37:12;;;;;;;6.20;0.70;;;;;;;;;;4988282;28;20096;-67
2022/09/19 02:39:50;;;;;;;10.05;1.27;;;;;;;;;;4988085;28;20129;-67
2022/09/19 02:42:29;;;;;;;4.65;0.80;;;;;;;;;;4988544;28;20382;-67
2022/09/19 02:45:12;;;;;;;4.65;0.63;;;;;;;;;;4987507;28;20145;-66
2022/09/19 02:47:54;;;;;;;7.65;1.30;;;;;;;;;;4983964;28;20046;-67
2022/09/19 02:50:29;;;;;;;4.30;1.15;;;;;;;;;;4984400;28;20031;-67
2022/09/19 02:52:58;;;;;;;5.25;0.88;;;;;;;;;;4986429;28;20042;-67
2022/09/19 02:55:30;;;;;;;5.65;1.08;;;;;;;;;;4985567;28;20550;-67
2022/09/19 02:57:59;;;;;;;5.43;1.05;;;;;;;;;;4989458;28;20045;-67
2022/09/19 03:00:25;;;;;;;10.70;1.02;;;;;;;;;;4987052;28;20061;-67
2022/09/19 03:06:11;;;;;;;3.85;0.90;;;;;;;;;;4985631;28;20096;-66
2022/09/19 03:08:38;;;;;;;9.70;1.27;;;;;;;;;;4985955;28;20058;-67
2022/09/19 03:11:08;;;;;;;6.35;1.30;;;;;;;;;;4989305;28;20030;-67
2022/09/19 03:13:38;;;;;;;8.32;0.95;;;;;;;;;;4986708;28;20089;-67
2022/09/19 03:16:10;;;;;;;8.30;0.98;;;;;;;;;;4985619;28;20547;-67
2022/09/19 03:18:38;;;;;;;10.93;1.27;;;;;;;;;;4985473;28;20062;-69
2022/09/19 03:21:08;;;;;;;6.43;0.85;;;;;;;;;;4984721;28;20417;-62
2022/09/19 03:23:39;;;;;;;5.85;1.98;;;;;;;;;;4987647;28;20062;-62
2022/09/19 03:26:09;;;;;;;6.45;0.95;;;;;;;;;;4980316;28;20034;-63
2022/09/19 03:28:35;;;;;;;5.80;1.25;;;;;;;;;;4985953;28;20022;-62
2022/09/19 03:31:00;;;;;;;4.93;0.80;;;;;;;;;;4984904;28;20431;-62
2022/09/19 03:33:27;;;;;;;5.03;0.70;;;;;;;;;;4982669;28;20414;-62
2022/09/19 03:35:56;;;;;;;4.60;1.05;;;;;;;;;;4983955;28;20057;-62
2022/09/19 03:38:22;;;;;;;7.63;1.13;;;;;;;;;;4983487;28;20026;-62
2022/09/19 03:40:47;;;;;;;9.85;0.95;;;;;;;;;;4980700;28;20468;-68
2022/09/19 03:43:13;;;;;;;10.23;1.65;;;;;;;;;;4982601;28;20160;-64
2022/09/19 03:45:39;;;;;;;8.07;1.48;;;;;;;;;;4984760;28;20046;-63
2022/09/19 03:48:04;;;;;;;5.88;0.90;;;;;;;;;;4984713;28;20386;-62
2022/09/19 03:50:30;;;;;;;6.68;1.30;;;;;;;;;;4988278;28;20077;-62
2022/09/19 03:52:58;;;;;;;10.32;1.10;;;;;;;;;;4985665;28;20038;-63
2022/09/19 03:55:24;;;;;;;9.95;1.55;;;;;;;;;;4984848;28;20069;-61
2022/09/19 03:57:49;;;;;;;7.03;1.13;;;;;;;;;;4985444;28;20479;-62
2022/09/19 04:00:15;;;;;;;4.82;1.10;;;;;;;;;;4986968;28;20129;-62
2022/09/19 04:02:41;;;;;;;9.25;1.30;;;;;;;;;;4983391;28;20161;-62
2022/09/19 04:05:06;;;;;;;6.40;0.98;;;;;;;;;;4985884;28;20038;-62
2022/09/19 04:07:32;;;;;;;7.95;1.23;;;;;;;;;;4986837;28;20493;-62
2022/09/19 04:09:57;;;;;;;9.52;1.25;;;;;;;;;;4984972;28;20084;-62
2022/09/19 04:12:23;;;;;;;8.80;1.20;;;;;;;;;;4982988;28;20030;-62
2022/09/19 04:14:49;;;;;;;5.10;1.20;;;;;;;;;;4984417;28;20382;-62
2022/09/19 04:17:15;;;;;;;7.75;1.25;;;;;;;;;;4980959;28;20093;-63
2022/09/19 04:19:42;;;;;;;4.20;1.05;;;;;;;;;;4981443;28;20046;-62
2022/09/19 04:22:08;;;;;;;5.65;1.17;;;;;;;;;;4983454;28;20066;-62
2022/09/19 04:24:34;;;;;;;6.40;1.27;;;;;;;;;;4981984;28;20047;-62
2022/09/19 04:26:59;;;;;;;9.32;1.52;;;;;;;;;;4978499;28;20570;-61
2022/09/19 04:29:27;;;;;;;9.32;1.50;;;;;;;;;;4981028;28;20125;-64
2022/09/19 04:31:53;;;;;;;6.20;1.08;;;;;;;;;;4985802;28;20060;-64
2022/09/19 04:34:18;;;;;;;8.85;1.15;;;;;;;;;;4984822;28;20034;-62
2022/09/19 04:36:44;;;;;;;8.98;1.30;;;;;;;;;;4985999;28;20070;-62
2022/09/19 04:39:10;;;;;;;9.52;1.10;;;;;;;;;;4987617;28;20116;-64
2022/09/19 04:41:37;;;;;;;14.65;1.92;;;;;;;;;;4987420;28;20084;-62
2022/09/19 04:44:04;;;;;;;6.43;1.30;;;;;;;;;;4983297;28;20094;-63
2022/09/19 04:46:31;;;;;;;9.18;1.50;;;;;;;;;;4981679;28;20503;-62
2022/09/19 04:48:57;;;;;;;6.82;1.30;;;;;;;;;;4987690;28;20055;-62
2022/09/19 04:51:24;;;;;;;6.63;1.42;;;;;;;;;;4987402;28;20045;-63
2022/09/19 04:53:50;;;;;;;8.25;1.58;;;;;;;;;;4986444;28;20069;-63
2022/09/19 04:56:18;;;;;;;9.48;1.20;;;;;;;;;;4981621;28;20026;-63
2022/09/19 04:58:44;;;;;;;12.32;1.50;;;;;;;;;;4984929;28;20030;-62
2022/09/19 05:01:10;;;;;;;16.83;2.00;;;;;;;;;;4980642;28;20054;-62
2022/09/19 05:03:37;;;;;;;6.82;0.98;;;;;;;;;;4982811;28;20127;-62
2022/09/19 05:06:04;;;;;;;8.07;1.60;;;;;;;;;;4985425;28;20055;-62
2022/09/19 05:08:31;;;;;;;10.20;1.42;;;;;;;;;;4985178;28;20046;-63
2022/09/19 05:10:58;;;;;;;4.22;0.93;;;;;;;;;;4986197;28;20034;-63
2022/09/19 05:13:28;;;;;;;10.85;1.50;;;;;;;;;;4985364;28;20050;-65
2022/09/19 05:15:54;;;;;;;10.48;1.40;;;;;;;;;;4986959;28;20504;-65
2022/09/19 05:18:21;;;;;;;8.57;1.30;;;;;;;;;;4984858;28;20050;-64
2022/09/19 05:20:48;;;;;;;7.28;1.08;;;;;;;;;;4985805;28;20042;-65
2022/09/19 05:23:14;;;;;;;8.65;2.08;;;;;;;;;;4986003;28;20030;-65
2022/09/19 05:25:40;;;;;;;8.40;1.60;;;;;;;;;;4987266;28;20429;-64
2022/09/19 05:28:06;;;;;;;7.28;1.67;;;;;;;;;;4984991;28;20791;-65
2022/09/19 05:30:47;;;;;;;7.82;1.38;;;;;;;;;;4986015;28;20484;-65
2022/09/19 05:33:12;;;;;;;6.22;1.20;;;;;;;;;;4985660;28;20046;-65
2022/09/19 05:35:37;;;;;;;7.25;1.25;;;;;;;;;;4982546;28;20050;-65
2022/09/19 05:38:03;;;;;;;7.20;1.50;;;;;;;;;;4965814;28;20031;-63
2022/09/19 05:40:29;;;;;;;8.88;1.30;;;;;;;;;;4986940;28;20026;-69
2022/09/19 05:42:59;;;;;;;9.00;1.40;;;;;;;;;;4984437;28;20053;-65
2022/09/19 05:45:26;;;;;;;8.15;2.03;;;;;;;;;;4985941;28;20058;-64
2022/09/19 05:47:52;;;;;;;6.03;1.52;;;;;;;;;;4987653;28;20073;-64
2022/09/19 05:50:17;;;;;;;4.85;1.13;;;;;;;;;;4987107;28;20038;-64
2022/09/19 05:55:28;;;;;;;5.07;1.02;;;;;;;;;;4987637;28;20049;-64
2022/09/19 05:57:56;;;;;;;10.85;1.60;;;;;;;;;;4989034;28;20038;-65
2022/09/19 06:00:25;;;;;;;7.53;1.25;;;;;;;;;;4988686;28;20058;-63
2022/09/19 06:03:00;;;;;;;6.10;1.33;;;;;;;;;;4987011;28;20042;-67
2022/09/19 06:05:27;;;;;;;5.93;1.20;;;;;;;;;;4987455;28;20070;-65
2022/09/19 06:07:56;;;;;;;4.68;1.05;;;;;;;;;;4991235;28;20045;-64
2022/09/19 06:10:23;;;;;;;10.80;1.50;;;;;;;;;;4989962;28;20185;-65
2022/09/19 06:12:49;;;;;;;5.15;1.08;;;;;;;;;;4988076;28;20042;-66
2022/09/19 06:15:14;;;;;;;7.13;1.60;;;;;;;;;;4984082;28;20130;-65
2022/09/19 06:17:40;;;;;;;6.55;1.30;;;;;;;;;;4980740;28;20053;-67
2022/09/19 06:20:06;;;;;;;5.60;1.10;;;;;;;;;;4983344;28;20112;-64
2022/09/19 06:22:31;;;;;;;8.85;1.63;;;;;;;;;;4983885;28;20454;-64
2022/09/19 06:24:57;;;;;;;10.23;1.08;;;;;;;;;;4985137;28;20121;-65
2022/09/19 06:27:23;;;;;;;8.35;1.10;;;;;;;;;;4985305;28;20474;-65
2022/09/19 06:29:48;;;;;;;4.97;1.23;;;;;;;;;;4983737;28;20066;-66
2022/09/19 06:32:14;;;;;;;3.40;1.05;;;;;;;;;;4981722;28;20509;-66
2022/09/19 06:34:39;;;;;;;7.65;1.55;;;;;;;;;;4982680;28;20474;-63
2022/09/19 06:37:05;;;;;;;2.78;1.20;;;;;;;;;;4982183;28;20042;-65
2022/09/19 06:39:30;;;;;;;8.32;1.50;;;;;;;;;;4984338;28;20603;-67
2022/09/19 06:41:55;;;;;;;5.40;1.38;;;;;;;;;;4999917;28;21316;-64
2022/09/19 06:44:22;;;;;;;6.32;1.23;;;;;;;;;;4984563;28;20043;-65
2022/09/19 06:46:48;;;;;;;4.97;1.40;;;;;;;;;;4984665;28;20034;-66
2022/09/19 06:49:13;;;;;;;9.90;2.70;;;;;;;;;;4981251;28;20047;-68
2022/09/19 06:51:39;;;;;;;5.25;1.25;;;;;;;;;;4986101;28;20046;-66
2022/09/19 06:54:04;;;;;;;6.78;1.70;;;;;;;;;;4982903;28;20584;-65
2022/09/19 06:56:29;;;;;;;4.32;1.08;;;;;;;;;;4985671;28;20034;-66
2022/09/19 06:58:55;;;;;;;5.22;1.30;;;;;;;;;;4983596;28;20704;-66
2022/09/19 07:01:22;;;;;;;7.38;1.77;;;;;;;;;;4982332;28;21021;-65
2022/09/19 07:03:48;;;;;;;9.23;1.40;;;;;;;;;;4981324;28;20042;-65
2022/09/19 07:06:13;;;;;;;7.05;1.58;;;;;;;;;;4983931;28;20419;-68
2022/09/19 07:08:39;;;;;;;5.25;1.00;;;;;;;;;;4981979;28;20141;-65
2022/09/19 07:11:04;;;;;;;5.88;1.20;;;;;;;;;;4999955;28;20575;-67
2022/09/19 07:13:30;;;;;;;9.40;1.27;;;;;;;;;;4986002;28;20037;-64
2022/09/19 07:16:03;;;;;;;3.22;1.00;;;;;;;;;;4980386;28;20050;-65
2022/09/19 07:18:30;;;;;;;6.78;1.60;;;;;;;;;;4983925;28;20059;-65
2022/09/19 07:21:00;;;;;;;6.22;1.00;;;;;;;;;;4984233;28;20041;-65
2022/09/19 07:23:25;;;;;;;5.38;1.27;;;;;;;;;;4982743;28;20681;-65
2022/09/19 07:25:54;;;;;;;4.68;1.02;;;;;;;;;;4981902;28;20034;-65
2022/09/19 07:28:20;;;;;;;6.15;1.40;;;;;;;;;;4981845;28;20122;-64
2022/09/19 07:30:47;;;;;;;5.43;1.20;;;;;;;;;;4979245;28;20034;-67
2022/09/19 07:33:14;;;;;;;4.72;1.00;;;;;;;;;;4984027;28;20043;-66
2022/09/19 07:35:41;;;;;;;6.07;1.38;;;;;;;;;;4986813;28;20197;-65
2022/09/19 07:38:10;;;;;;;4.07;0.90;;;;;;;;;;4982453;28;20038;-66
2022/09/19 07:40:37;;;;;;;3.80;1.27;;;;;;;;;;4979595;28;20651;-64
2022/09/19 07:43:03;;;;;;;6.28;1.30;;;;;;;;;;4979568;28;20129;-66
2022/09/19 07:45:35;;;;;;;8.80;1.50;;;;;;;;;;4982027;28;20046;-65
2022/09/19 07:48:02;;;;;;;6.63;1.50;;;;;;;;;;4987717;28;20046;-65
2022/09/19 07:50:28;;;;;;;5.43;1.00;;;;;;;;;;4986445;28;20050;-67
2022/09/19 07:53:01;;;;;;;6.32;1.38;;;;;;;;;;4985448;28;20038;-65
2022/09/19 07:55:27;;;;;;;3.80;1.27;;;;;;;;;;4983653;28;20051;-64
2022/09/19 07:57:56;;;;;;;5.93;1.73;;;;;;;;;;4984984;28;20049;-65
2022/09/19 08:00:23;;;;;;;4.07;1.02;;;;;;;;;;4985538;28;20038;-65
2022/09/19 08:03:03;;;;;;;4.57;1.33;;;;;;;;;;4978519;28;20042;-65
2022/09/19 08:05:33;;;;;;;7.28;1.30;;;;;;;;;;4969492;28;20386;-64
2022/09/19 08:07:59;;;;;;;4.85;1.10;;;;;;;;;;4987855;28;20037;-64
2022/09/19 08:10:24;;;;;;;4.28;1.10;;;;;;;;;;4986622;28;20141;-64
2022/09/19 08:12:50;;;;;;;4.85;1.00;;;;;;;;;;4986387;28;20458;-66
2022/09/19 08:15:17;;;;;;;5.68;1.27;;;;;;;;;;4981348;28;20108;-65
2022/09/19 08:18:01;;;;;;;5.03;1.35;;;;;;;;;;4978318;28;20042;-66
2022/09/19 08:20:30;;;;;;;9.07;1.65;;;;;;;;;;4977997;28;20042;-65
2022/09/19 08:22:58;;;;;;;6.45;1.77;;;;;;;;;;4979606;28;20046;-64
2022/09/19 08:25:28;;;;;;;4.38;1.42;;;;;;;;;;4977844;28;20441;-65
2022/09/19 08:27:55;;;;;;;4.38;1.20;;;;;;;;;;4980285;28;20042;-65
2022/09/19 08:30:22;;;;;;;5.82;1.20;;;;;;;;;;4978944;28;20039;-65
2022/09/19 08:32:49;;;;;;;4.30;1.02;;;;;;;;;;4979738;28;20125;-65
2022/09/19 08:35:15;;;;;;;7.18;1.20;;;;;;;;;;4976767;28;20026;-64
2022/09/19 08:37:41;;;;;;;2.92;0.95;;;;;;;;;;4979063;28;20027;-64
2022/09/19 08:40:18;;;;;;;5.10;1.33;;;;;;;;;;4977675;28;20082;-64
2022/09/19 08:42:51;;;;;;;6.72;1.58;;;;;;;;;;4979682;28;20078;-65
2022/09/19 08:45:33;;;;;;;8.43;1.38;;;;;;;;;;4977525;28;20042;-64
2022/09/19 08:48:05;;;;;;;4.68;1.48;;;;;;;;;;4979738;28;20039;-64
2022/09/19 08:50:35;;;;;;;5.68;1.40;;;;;;;;;;4975587;28;20410;-66
2022/09/19 08:53:05;;;;;;;3.53;1.38;;;;;;;;;;4958760;28;20061;-64
2022/09/19 08:55:33;;;;;;;4.90;1.38;;;;;;;;;;4977056;28;20060;-66
2022/09/19 08:58:01;;;;;;;4.72;1.30;;;;;;;;;;4979803;28;20413;-64
2022/09/19 09:00:32;;;;;;;5.82;1.60;;;;;;;;;;4978525;28;20042;-65
2022/09/19 09:03:03;;;;;;;9.40;1.35;;;;;;;;;;4977502;28;20077;-65
2022/09/19 09:05:56;;;;;;;10.48;1.75;;;;;;;;;;4979486;28;20042;-65
2022/09/19 09:08:40;;;;;;;6.28;1.40;;;;;;;;;;4977574;28;20097;-67
2022/09/19 09:11:30;;;;;;;4.05;1.15;;;;;;;;;;4976445;28;20035;-65
2022/09/19 09:14:17;;;;;;;7.15;1.40;;;;;;;;;;4983072;28;20037;-64
2022/09/19 09:16:57;;;;;;;4.15;1.13;;;;;;;;;;4978935;28;20038;-64
2022/09/19 09:19:50;;;;;;;7.32;1.00;;;;;;;;;;4983178;28;20049;-64
2022/09/19 09:22:27;;;;;;;;;;;;;;;;;;4984267;28;20054;-64
2022/09/19 09:25:18;;;;;;;2.58;1.13;;;;;;;;;;4981676;28;19920;-65
2022/09/19 09:28:06;;;;;;;2.38;0.75;;;;;;;;;;4981851;28;20078;-65
2022/09/19 09:30:44;;;;;;;2.25;0.95;;;;;;;;;;4982088;28;20050;-65
2022/09/19 09:33:21;;;;;;;3.75;0.82;;;;;;;;;;4983636;28;20057;-64
2022/09/19 09:36:08;;;;;;;4.50;1.10;;;;;;;;;;4980159;28;20116;-66
2022/09/19 09:38:45;;;;;;;3.50;1.20;;;;;;;;;;4981641;28;20455;-65
2022/09/19 09:41:50;;;;;;;5.53;1.25;;;;;;;;;;4981886;28;20023;-65
2022/09/19 09:45:00;;;;;;;6.00;1.60;;;;;;;;;;4984578;28;20041;-64
2022/09/19 09:47:52;;;;;;;6.05;1.02;;;;;;;;;;4980582;28;20450;-64
2022/09/19 09:50:46;;;;;;;8.20;1.48;;;;;;;;;;4989442;28;20030;-64
2022/09/19 09:53:46;;;;;;;6.72;1.70;;;;;;;;;;4986439;28;20287;-64
2022/09/19 09:56:41;;;;;;;5.28;1.17;;;;;;;;;;4987168;28;20034;-64
2022/09/19 10:05:43;;;;;;;4.67;1.00;;;;;;;;;;4969451;28;20600;-63
2022/09/19 10:08:18;;;;;;;5.82;1.02;;;;;;;;;;4985452;28;20030;-65
2022/09/19 10:10:45;;;;;;;10.93;1.20;;;;;;;;;;4987881;28;20026;-63
2022/09/19 10:13:16;;;;;;;4.43;1.20;;;;;;;;;;4987489;28;20039;-62
2022/09/19 10:15:41;;;;;;;4.32;1.33;;;;;;;;;;4983260;28;20062;-63
2022/09/19 10:18:13;;;;;;;6.72;1.20;;;;;;;;;;4974300;28;20039;-65
2022/09/19 10:20:51;;;;;;;7.97;1.70;;;;;;;;;;4967767;28;20137;-66
2022/09/19 10:23:23;;;;;;;6.70;1.45;;;;;;;;;;4982753;28;20030;-65
2022/09/19 10:26:15;;;;;;;6.43;1.20;;;;;;;;;;4981694;28;20037;-66
2022/09/19 10:28:48;;;;;;;9.13;1.40;;;;;;;;;;4978226;28;20039;-70
2022/09/19 10:31:34;;;;;;;5.78;1.00;;;;;;;;;;4981104;28;20055;-64
2022/09/19 10:34:05;;;;;;;5.45;0.90;;;;;;;;;;4983028;28;20121;-64
2022/09/19 10:36:33;;;;;;;6.05;1.35;;;;;;;;;;4975513;28;20092;-64
2022/09/19 10:39:03;;;;;;;6.38;1.30;;;;;;;;;;4982417;28;20046;-64
2022/09/19 10:41:31;;;;;;;14.02;2.50;;;;;;;;;;4982003;28;20038;-65
2022/09/19 10:44:24;;;;;;;7.15;1.80;;;;;;;;;;4981458;28;20042;-64
2022/09/19 10:47:04;;;;;;;7.57;1.40;;;;;;;;;;4978695;28;20072;-64
2022/09/19 10:49:43;;;;;;;6.90;1.25;;;;;;;;;;4980321;28;20046;-65
2022/09/19 10:52:09;;;;;;;4.85;1.20;;;;;;;;;;4978054;28;20104;-67
2022/09/19 10:54:39;;;;;;;9.02;1.70;;;;;;;;;;4982560;28;20042;-65
2022/09/19 10:57:40;;;;;;;10.57;1.40;;;;;;;;;;4981894;28;20093;-65
2022/09/19 11:00:29;;;;;;;4.78;1.00;;;;;;;;;;4983795;28;20050;-64
2022/09/19 11:03:25;;;;;;;5.80;0.98;;;;;;;;;;4984059;28;20045;-64
2022/09/19 11:06:07;;;;;;;6.18;1.33;;;;;;;;;;4985563;28;20168;-64
2022/09/19 11:08:42;;;;;;;3.78;0.88;;;;;;;;;;4983667;28;20038;-65
2022/09/19 11:11:26;;;;;;;13.23;2.38;;;;;;;;;;4983781;28;20844;-67
2022/09/19 11:14:18;;;;;;;4.30;1.08;;;;;;;;;;4980738;28;20494;-63
2022/09/19 11:17:01;;;;;;;7.82;1.30;;;;;;;;;;4982133;28;20502;-63
2022/09/19 11:19:51;;;;;;;5.40;0.80;;;;;;;;;;4980882;28;20038;-62
2022/09/19 11:22:41;;;;;;;6.00;0.93;;;;;;;;;;4982972;28;20039;-63
2022/09/19 11:25:29;;;;;;;9.77;1.50;;;;;;;;;;4981873;28;20126;-63
2022/09/19 11:28:22;;;;;;;7.88;1.20;;;;;;;;;;4977532;28;20038;-64
2022/09/19 11:31:17;;;;;;;3.25;1.08;;;;;;;;;;4978904;28;20045;-65
2022/09/19 11:33:59;;;;;;;5.07;1.30;;;;;;;;;;4977008;28;20050;-65
2022/09/19 11:36:49;;;;;;;5.45;0.77;;;;;;;;;;4978479;28;20070;-64
2022/09/19 11:39:56;;;;;;;8.55;1.17;;;;;;;;;;4981437;28;20061;-66
2022/09/19 11:42:54;;;;;;;7.10;0.90;;;;;;;;;;4980110;28;20052;-67
2022/09/19 11:45:20;;;;;;;3.80;0.85;;;;;;;;;;4981750;28;20486;-66
2022/09/19 11:48:10;;;;;;;5.57;1.52;;;;;;;;;;4984660;28;20128;-66
2022/09/19 11:50:59;;;;;;;11.00;1.20;;;;;;;;;;4986945;28;20043;-66
2022/09/19 11:53:40;;;;;;;4.45;0.80;;;;;;;;;;4982491;28;20104;-65
2022/09/19 11:56:35;;;;;;;5.32;0.90;;;;;;;;;;4986750;28;20049;-65
2022/09/19 11:59:50;;;;;;;5.93;1.10;;;;;;;;;;4987532;28;20074;-65
2022/09/19 12:02:40;;;;;;;8.55;1.23;;;;;;;;;;4981606;28;20047;-66
2022/09/19 12:05:06;;;;;;;5.20;0.90;;;;;;;;;;4985418;28;20061;-67
2022/09/19 12:08:02;;;;;;;5.63;1.08;;;;;;;;;;4987089;28;20066;-65
2022/09/19 12:10:35;;;;;;;7.10;0.95;;;;;;;;;;4985292;28;20046;-67
2022/09/19 12:13:16;;;;;;;5.05;1.15;;;;;;;;;;4987714;28;20046;-66
2022/09/19 12:15:51;;;;;;;4.82;0.93;;;;;;;;;;4982595;28;20070;-66
2022/09/19 12:18:22;;;;;;;1.95;0.73;;;;;;;;;;4980230;28;20073;-66
2022/09/19 12:20:53;;;;;;;6.53;1.10;;;;;;;;;;4979139;28;20053;-66
2022/09/19 12:26:32;;;;;;;3.47;1.08;;;;;;;;;;4983744;28;20101;-66
2022/09/19 12:29:10;;;;;;;2.75;0.70;;;;;;;;;;4985238;28;20117;-67
2022/09/19 12:31:39;;;;;;;8.32;1.13;;;;;;;;;;4984543;28;20085;-70
2022/09/19 12:34:23;;;;;;;4.20;0.80;;;;;;;;;;4983818;28;20042;-68
2022/09/19 12:36:59;;;;;;;4.05;0.82;;;;;;;;;;4984303;28;20086;-67
2022/09/19 12:39:38;;;;;;;2.40;0.60;;;;;;;;;;4985389;28;20109;-67
2022/09/19 12:42:09;;;;;;;1.63;0.40;;;;;;;;;;4984378;28;20117;-65
2022/09/19 12:44:56;;;;;;;3.45;0.60;;;;;;;;;;4982680;28;20122;-65
2022/09/19 12:47:22;;;;;;;5.05;0.88;;;;;;;;;;4986258;28;20065;-64
2022/09/19 12:49:56;;;;;;;2.95;0.60;;;;;;;;;;4986134;28;20022;-66
2022/09/19 12:52:33;;;;;;;3.78;0.65;;;;;;;;;;4989838;28;20060;-65
2022/09/19 12:55:20;;;;;;;2.53;0.80;;;;;;;;;;4988636;28;20042;-66
2022/09/19 12:57:57;;;;;;;2.50;0.70;;;;;;;;;;4987264;28;20454;-65
2022/09/19 13:00:22;;;;;;;5.43;0.98;;;;;;;;;;4989427;28;20073;-65
2022/09/19 13:03:07;;;;;;;5.07;0.88;;;;;;;;;;4990729;28;20042;-66
2022/09/19 13:05:40;;;;;;;1.73;0.50;;;;;;;;;;4987895;28;20053;-65
2022/09/19 13:08:12;;;;;;;2.95;0.70;;;;;;;;;;4988536;28;20034;-65
2022/09/19 13:10:39;;;;;;;4.22;0.70;;;;;;;;;;4988982;28;20030;-65
2022/09/19 13:13:19;;;;;;;1.65;0.50;;;;;;;;;;4988901;28;20039;-65
2022/09/19 13:15:57;;;;;;;5.13;0.70;;;;;;;;;;4989252;28;20055;-66
2022/09/19 13:24:47;;;;;;;5.63;0.70;;;;;;;;;;4988136;28;20058;-66
2022/09/19 13:27:14;;;;;;;2.72;0.70;;;;;;;;;;4975321;28;20050;-67
2022/09/19 13:29:43;;;;;;;2.28;0.52;;;;;;;;;;4987827;28;20121;-66
2022/09/19 13:32:34;;;;;;;4.47;0.90;;;;;;;;;;4985283;28;20448;-66
2022/09/19 13:35:03;;;;;;;4.75;0.80;;;;;;;;;;4986749;28;20030;-65
2022/09/19 13:37:29;;;;;;;6.82;0.88;;;;;;;;;;4989804;28;20064;-65
2022/09/19 13:40:15;;;;;;;4.50;0.70;;;;;;;;;;4988695;28;20533;-66
2022/09/19 13:42:50;;;;;;;5.28;0.70;;;;;;;;;;4988073;28;20046;-66
2022/09/19 13:45:30;;;;;;;4.20;0.57;;;;;;;;;;4988627;28;20046;-66
2022/09/19 13:48:06;;;;;;;4.72;0.90;;;;;;;;;;4988548;28;20034;-65
2022/09/19 13:50:44;;;;;;;4.85;0.82;;;;;;;;;;4987897;28;20043;-65
2022/09/19 13:53:27;;;;;;;4.50;1.05;;;;;;;;;;4987626;28;20082;-65
2022/09/19 13:56:00;;;;;;;5.43;0.85;;;;;;;;;;4987252;28;20038;-64
2022/09/19 13:58:32;;;;;;;5.20;0.93;;;;;;;;;;4987838;28;20046;-66
2022/09/19 14:01:15;;;;;;;6.18;1.10;;;;;;;;;;4985716;28;20133;-65
2022/09/19 14:03:47;;;;;;;5.18;0.77;;;;;;;;;;4987776;28;20038;-66
2022/09/19 14:06:33;;;;;;;5.10;0.90;;;;;;;;;;4985814;28;20046;-66
2022/09/19 14:09:18;;;;;;;5.85;1.65;;;;;;;;;;4987590;28;20042;-66
2022/09/19 14:11:44;;;;;;;4.80;0.93;;;;;;;;;;4984840;28;20046;-65
2022/09/19 14:14:49;;;;;;;3.00;0.70;;;;;;;;;;4989091;28;20040;-66
2022/09/19 14:17:17;;;;;;;2.95;0.80;;;;;;;;;;4984899;28;20118;-67
2022/09/19 14:19:53;;;;;;;4.05;0.80;;;;;;;;;;4988629;28;20062;-65
2022/09/19 14:22:37;;;;;;;3.03;0.80;;;;;;;;;;4988416;28;20085;-65
2022/09/19 14:25:16;;;;;;;4.35;0.90;;;;;;;;;;4987156;28;20413;-66
2022/09/19 14:27:50;;;;;;;7.53;0.60;;;;;;;;;;4972374;28;20047;-66
2022/09/19 14:30:28;;;;;;;3.55;1.10;;;;;;;;;;4976712;28;20058;-66
2022/09/19 14:33:17;;;;;;;4.03;1.00;;;;;;;;;;4984066;28;20436;-67
2022/09/19 14:35:47;;;;;;;3.88;1.05;;;;;;;;;;4955467;28;20057;-65
2022/09/19 14:38:25;;;;;;;3.90;1.02;;;;;;;;;;4984874;28;20528;-67
2022/09/19 14:41:07;;;;;;;5.40;1.17;;;;;;;;;;4981908;28;20528;-67
2022/09/19 14:44:17;;;;;;;4.03;1.15;;;;;;;;;;4986711;28;20050;-67
2022/09/19 14:46:51;;;;;;;4.63;0.88;;;;;;;;;;4984811;28;20057;-66
2022/09/19 14:49:29;;;;;;;5.43;0.60;;;;;;;;;;4984588;28;20050;-65
2022/09/19 14:52:06;;;;;;;3.53;0.75;;;;;;;;;;4987783;28;20051;-66
2022/09/19 14:54:38;;;;;;;3.03;0.80;;;;;;;;;;4987365;28;20065;-65
2022/09/19 14:57:14;;;;;;;6.30;0.63;;;;;;;;;;4987191;28;20378;-67
2022/09/19 14:59:40;;;;;;;5.18;0.88;;;;;;;;;;4984609;28;20132;-66
2022/09/19 15:02:32;;;;;;;7.47;1.05;;;;;;;;;;4986474;28;20504;-66
2022/09/19 15:05:04;;;;;;;3.45;0.85;;;;;;;;;;4988620;28;20486;-67
2022/09/19 15:07:32;;;;;;;5.80;0.80;;;;;;;;;;4986226;28;20074;-66
2022/09/19 15:09:57;;;;;;;1.42;0.60;;;;;;;;;;4984628;28;20402;-65
2022/09/19 15:12:30;;;;;;;4.65;1.00;;;;;;;;;;4987930;28;20038;-67
2022/09/19 15:14:56;;;;;;;5.53;0.93;;;;;;;;;;4986732;28;20401;-67
2022/09/19 15:17:27;;;;;;;4.78;0.98;;;;;;;;;;5002432;28;20034;-66
2022/09/19 15:19:56;;;;;;;4.88;0.93;;;;;;;;;;4987483;28;20030;-66
2022/09/19 15:22:33;;;;;;;2.85;0.82;;;;;;;;;;4987118;28;20034;-66
2022/09/19 15:25:21;;;;;;;4.45;0.82;;;;;;;;;;4985540;28;20065;-66
2022/09/19 15:27:51;;;;;;;3.90;1.13;;;;;;;;;;4983256;28;20055;-67
2022/09/19 15:30:28;;;;;;;3.22;0.80;;;;;;;;;;4983803;28;20082;-67
2022/09/19 15:33:00;;;;;;;3.10;0.70;;;;;;;;;;4985995;28;20077;-67
2022/09/19 15:35:30;;;;;;;4.57;0.63;;;;;;;;;;4987079;28;20052;-66
2022/09/19 15:38:02;;;;;;;6.97;0.95;;;;;;;;;;4984806;28;20072;-64
2022/09/19 15:40:32;;;;;;;3.92;0.77;;;;;;;;;;4982976;28;20059;-65
2022/09/19 15:43:00;;;;;;;3.47;0.98;;;;;;;;;;5000492;28;20042;-65
2022/09/19 15:45:25;;;;;;;4.30;0.88;;;;;;;;;;4987076;28;20105;-66
2022/09/19 15:47:57;;;;;;;4.57;0.80;;;;;;;;;;4984220;28;20042;-66
2022/09/19 15:50:26;;;;;;;4.07;0.88;;;;;;;;;;4982987;28;20055;-66